sensor_id;sensor_type;location;lat;lon;timestamp;pressure;altitude;pressure_sealevel;temperature;humidity
72707;BME280;62517;62.630;17.936;2022-09-17T07:34:37;99294.28;;;18.59;44.94
72707;BME280;62517;62.630;17.936;2022-09-17T07:37:05;99297.79;;;18.55;44.67
72707;BME280;62517;62.630;17.936;2022-09-17T07:39:39;99294.67;;;18.47;44.51
72707;BME280;62517;62.630;17.936;2022-09-17T07:42:08;99296.15;;;18.53;44.34
72707;BME280;62517;62.630;17.936;2022-09-17T07:44:37;99298.15;;;18.73;44.15
72707;BME280;62517;62.630;17.936;2022-09-17T07:47:06;99298.44;;;18.77;43.98
72707;BME280;62517;62.630;17.936;2022-09-17T07:49:34;99299.07;;;18.78;43.79
72707;BME280;62517;62.630;17.936;2022-09-17T07:52:03;99297.38;;;19.22;43.69
72707;BME280;62517;62.630;17.936;2022-09-17T07:54:30;99298.91;;;19.44;43.33
72707;BME280;62517;62.630;17.936;2022-09-17T07:56:58;99289.54;;;19.62;43.12
72707;BME280;62517;62.630;17.936;2022-09-17T07:59:26;99299.86;;;19.93;42.80
72707;BME280;62517;62.630;17.936;2022-09-17T08:01:56;99302.70;;;20.22;42.47
72707;BME280;62517;62.630;17.936;2022-09-17T08:04:24;99302.87;;;20.51;42.25
72707;BME280;62517;62.630;17.936;2022-09-17T08:06:51;99301.95;;;20.59;41.97
72707;BME280;62517;62.630;17.936;2022-09-17T08:09:19;99304.97;;;20.79;41.68
72707;BME280;62517;62.630;17.936;2022-09-17T08:11:47;99306.17;;;21.16;41.42
72707;BME280;62517;62.630;17.936;2022-09-17T08:14:20;99303.15;;;21.28;41.04
72707;BME280;62517;62.630;17.936;2022-09-17T08:16:48;99302.74;;;21.38;41.01
72707;BME280;62517;62.630;17.936;2022-09-17T08:19:16;99301.92;;;21.62;40.81
72707;BME280;62517;62.630;17.936;2022-09-17T08:21:44;99304.71;;;21.72;40.25
72707;BME280;62517;62.630;17.936;2022-09-17T08:24:12;99308.76;;;21.93;40.42
72707;BME280;62517;62.630;17.936;2022-09-17T08:26:40;99314.12;;;22.02;40.32
72707;BME280;62517;62.630;17.936;2022-09-17T08:29:08;99313.94;;;22.30;40.00
72707;BME280;62517;62.630;17.936;2022-09-17T08:31:37;99316.10;;;22.30;39.64
72707;BME280;62517;62.630;17.936;2022-09-17T08:34:09;99315.52;;;22.44;39.80
72707;BME280;62517;62.630;17.936;2022-09-17T08:36:38;99316.62;;;22.48;39.59
72707;BME280;62517;62.630;17.936;2022-09-17T08:39:08;99320.10;;;22.64;39.61
72707;BME280;62517;62.630;17.936;2022-09-17T08:41:49;99322.59;;;22.88;39.41
72707;BME280;62517;62.630;17.936;2022-09-17T08:44:24;99323.90;;;22.80;39.36
72707;BME280;62517;62.630;17.936;2022-09-17T08:46:59;99326.07;;;23.05;39.14
72707;BME280;62517;62.630;17.936;2022-09-17T08:49:32;99326.63;;;23.00;38.71
72707;BME280;62517;62.630;17.936;2022-09-17T08:53:15;99326.11;;;23.28;39.03
72707;BME280;62517;62.630;17.936;2022-09-17T08:55:50;99332.88;;;23.15;39.03
72707;BME280;62517;62.630;17.936;2022-09-17T08:58:34;99332.73;;;23.33;38.65
72707;BME280;62517;62.630;17.936;2022-09-17T09:01:13;99334.68;;;23.27;38.71
72707;BME280;62517;62.630;17.936;2022-09-17T09:03:57;99335.54;;;23.38;38.41
72707;BME280;62517;62.630;17.936;2022-09-17T09:06:33;99334.89;;;23.45;38.08
72707;BME280;62517;62.630;17.936;2022-09-17T09:09:10;99336.26;;;23.60;38.40
72707;BME280;62517;62.630;17.936;2022-09-17T09:11:41;99337.71;;;23.67;38.42
72707;BME280;62517;62.630;17.936;2022-09-17T09:14:15;99338.23;;;23.69;38.21
72707;BME280;62517;62.630;17.936;2022-09-17T09:16:48;99344.18;;;23.69;38.17
72707;BME280;62517;62.630;17.936;2022-09-17T09:19:20;99344.95;;;23.90;38.13
72707;BME280;62517;62.630;17.936;2022-09-17T09:22:01;99341.53;;;23.84;38.14
72707;BME280;62517;62.630;17.936;2022-09-17T09:24:39;99347.79;;;23.91;38.07
72707;BME280;62517;62.630;17.936;2022-09-17T09:27:16;99352.45;;;24.01;37.93
72707;BME280;62517;62.630;17.936;2022-09-17T09:29:54;99355.53;;;23.91;37.74
72707;BME280;62517;62.630;17.936;2022-09-17T09:32:36;99360.00;;;24.05;38.02
72707;BME280;62517;62.630;17.936;2022-09-17T09:35:16;99360.92;;;24.07;37.87
72707;BME280;62517;62.630;17.936;2022-09-17T09:37:51;99363.93;;;24.02;37.66
72707;BME280;62517;62.630;17.936;2022-09-17T09:40:30;99361.31;;;24.05;37.64
72707;BME280;62517;62.630;17.936;2022-09-17T09:43:11;99365.21;;;24.11;37.50
72707;BME280;62517;62.630;17.936;2022-09-17T09:45:53;99368.20;;;24.26;37.72
72707;BME280;62517;62.630;17.936;2022-09-17T09:48:32;99371.09;;;24.09;37.67
72707;BME280;62517;62.630;17.936;2022-09-17T09:51:15;99374.78;;;24.32;37.41
72707;BME280;62517;62.630;17.936;2022-09-17T09:53:55;99375.96;;;24.43;37.68
72707;BME280;62517;62.630;17.936;2022-09-17T09:56:40;99383.08;;;24.33;37.67
72707;BME280;62517;62.630;17.936;2022-09-17T09:59:14;99382.79;;;24.26;37.66
72707;BME280;62517;62.630;17.936;2022-09-17T10:03:18;99386.09;;;24.38;37.64
72707;BME280;62517;62.630;17.936;2022-09-17T10:05:56;99383.75;;;24.47;37.58
72707;BME280;62517;62.630;17.936;2022-09-17T10:08:27;99385.90;;;24.53;37.46
72707;BME280;62517;62.630;17.936;2022-09-17T10:10:59;99383.84;;;24.52;37.17
72707;BME280;62517;62.630;17.936;2022-09-17T10:13:29;99385.18;;;24.61;37.13
72707;BME280;62517;62.630;17.936;2022-09-17T10:16:15;99388.65;;;24.67;37.34
72707;BME280;62517;62.630;17.936;2022-09-17T10:18:45;99391.61;;;24.73;36.96
72707;BME280;62517;62.630;17.936;2022-09-17T10:21:20;99391.14;;;24.70;37.20
72707;BME280;62517;62.630;17.936;2022-09-17T10:23:49;99395.28;;;24.69;37.24
72707;BME280;62517;62.630;17.936;2022-09-17T10:26:22;99392.32;;;24.65;36.86
72707;BME280;62517;62.630;17.936;2022-09-17T10:28:53;99394.50;;;24.74;37.11
72707;BME280;62517;62.630;17.936;2022-09-17T10:31:23;99398.48;;;24.71;37.28
72707;BME280;62517;62.630;17.936;2022-09-17T10:33:56;99400.77;;;24.74;37.27
72707;BME280;62517;62.630;17.936;2022-09-17T10:36:39;99402.84;;;24.70;37.28
72707;BME280;62517;62.630;17.936;2022-09-17T10:39:18;99405.77;;;24.68;37.00
72707;BME280;62517;62.630;17.936;2022-09-17T10:41:53;99407.62;;;24.74;37.21
72707;BME280;62517;62.630;17.936;2022-09-17T10:44:23;99408.66;;;24.86;37.17
72707;BME280;62517;62.630;17.936;2022-09-17T10:46:54;99408.77;;;24.69;36.96
72707;BME280;62517;62.630;17.936;2022-09-17T10:49:36;99413.80;;;24.79;37.14
72707;BME280;62517;62.630;17.936;2022-09-17T10:52:11;99409.59;;;24.89;37.03
72707;BME280;62517;62.630;17.936;2022-09-17T10:55:19;99416.16;;;24.84;37.10
72707;BME280;62517;62.630;17.936;2022-09-17T10:58:02;99414.86;;;24.94;36.88
72707;BME280;62517;62.630;17.936;2022-09-17T11:00:41;99411.09;;;24.82;36.89
72707;BME280;62517;62.630;17.936;2022-09-17T11:03:46;99415.57;;;24.99;37.03
72707;BME280;62517;62.630;17.936;2022-09-17T11:06:32;99422.38;;;24.93;37.15
72707;BME280;62517;62.630;17.936;2022-09-17T11:09:15;99425.98;;;24.93;36.76
72707;BME280;62517;62.630;17.936;2022-09-17T11:11:54;99428.44;;;24.89;37.10
72707;BME280;62517;62.630;17.936;2022-09-17T11:14:37;99428.10;;;25.05;37.07
72707;BME280;62517;62.630;17.936;2022-09-17T11:17:19;99427.13;;;25.05;37.13
72707;BME280;62517;62.630;17.936;2022-09-17T11:19:57;99426.19;;;25.00;36.95
72707;BME280;62517;62.630;17.936;2022-09-17T11:22:38;99428.44;;;25.06;37.02
72707;BME280;62517;62.630;17.936;2022-09-17T11:25:22;99429.84;;;25.06;37.03
72707;BME280;62517;62.630;17.936;2022-09-17T11:28:03;99429.78;;;25.04;37.03
72707;BME280;62517;62.630;17.936;2022-09-17T11:30:38;99433.16;;;25.14;36.97
72707;BME280;62517;62.630;17.936;2022-09-17T11:33:22;99428.72;;;25.03;36.64
72707;BME280;62517;62.630;17.936;2022-09-17T11:35:55;99436.16;;;25.06;36.83
72707;BME280;62517;62.630;17.936;2022-09-17T11:38:27;99435.67;;;25.07;36.89
72707;BME280;62517;62.630;17.936;2022-09-17T11:41:00;99441.55;;;25.17;36.79
72707;BME280;62517;62.630;17.936;2022-09-17T11:43:32;99441.91;;;25.00;36.79
72707;BME280;62517;62.630;17.936;2022-09-17T11:46:07;99446.11;;;25.00;36.59
72707;BME280;62517;62.630;17.936;2022-09-17T11:48:42;99445.25;;;25.10;36.60
72707;BME280;62517;62.630;17.936;2022-09-17T11:51:21;99443.99;;;25.11;36.88
72707;BME280;62517;62.630;17.936;2022-09-17T11:53:54;99443.84;;;24.96;36.73
72707;BME280;62517;62.630;17.936;2022-09-17T11:56:29;99443.90;;;25.17;36.77
72707;BME280;62517;62.630;17.936;2022-09-17T11:59:03;99446.34;;;25.08;36.58
72707;BME280;62517;62.630;17.936;2022-09-17T12:01:39;99446.07;;;25.21;36.78
72707;BME280;62517;62.630;17.936;2022-09-17T12:04:28;99448.52;;;25.16;36.45
72707;BME280;62517;62.630;17.936;2022-09-17T12:07:01;99451.46;;;25.14;36.74
72707;BME280;62517;62.630;17.936;2022-09-17T12:09:36;99451.11;;;25.20;36.59
72707;BME280;62517;62.630;17.936;2022-09-17T12:12:13;99451.05;;;25.19;36.71
72707;BME280;62517;62.630;17.936;2022-09-17T12:14:47;99458.19;;;25.27;36.59
72707;BME280;62517;62.630;17.936;2022-09-17T12:17:21;99457.85;;;25.23;36.54
72707;BME280;62517;62.630;17.936;2022-09-17T12:19:55;99461.42;;;25.36;36.60
72707;BME280;62517;62.630;17.936;2022-09-17T12:22:32;99459.08;;;25.27;36.61
72707;BME280;62517;62.630;17.936;2022-09-17T12:25:01;99460.09;;;25.30;36.48
72707;BME280;62517;62.630;17.936;2022-09-17T12:27:37;99458.64;;;25.41;36.36
72707;BME280;62517;62.630;17.936;2022-09-17T12:30:10;99460.64;;;25.35;36.39
72707;BME280;62517;62.630;17.936;2022-09-17T12:32:50;99461.75;;;25.43;36.45
72707;BME280;62517;62.630;17.936;2022-09-17T12:35:33;99462.37;;;25.41;36.52
72707;BME280;62517;62.630;17.936;2022-09-17T12:38:18;99459.01;;;25.36;36.31
72707;BME280;62517;62.630;17.936;2022-09-17T12:40:55;99461.81;;;25.48;36.59
72707;BME280;62517;62.630;17.936;2022-09-17T12:43:38;99458.02;;;25.41;36.37
72707;BME280;62517;62.630;17.936;2022-09-17T12:46:21;99456.14;;;25.49;36.33
72707;BME280;62517;62.630;17.936;2022-09-17T12:49:08;99458.03;;;25.52;36.31
72707;BME280;62517;62.630;17.936;2022-09-17T12:51:50;99457.56;;;25.36;36.32
72707;BME280;62517;62.630;17.936;2022-09-17T12:54:43;99461.24;;;25.42;36.34
72707;BME280;62517;62.630;17.936;2022-09-17T12:57:26;99460.74;;;25.48;36.29
72707;BME280;62517;62.630;17.936;2022-09-17T13:00:05;99459.04;;;25.45;36.23
72707;BME280;62517;62.630;17.936;2022-09-17T13:02:40;99460.77;;;25.48;36.52
72707;BME280;62517;62.630;17.936;2022-09-17T13:05:26;99457.70;;;25.48;36.16
72707;BME280;62517;62.630;17.936;2022-09-17T13:08:16;99458.41;;;25.58;36.42
72707;BME280;62517;62.630;17.936;2022-09-17T13:11:03;99462.20;;;25.63;36.40
72707;BME280;62517;62.630;17.936;2022-09-17T13:13:42;99464.87;;;25.53;36.34
72707;BME280;62517;62.630;17.936;2022-09-17T13:16:17;99464.17;;;25.57;36.44
72707;BME280;62517;62.630;17.936;2022-09-17T13:18:53;99464.36;;;25.48;36.28
72707;BME280;62517;62.630;17.936;2022-09-17T13:21:30;99477.98;;;25.56;36.34
72707;BME280;62517;62.630;17.936;2022-09-17T13:23:59;99478.26;;;25.58;36.45
72707;BME280;62517;62.630;17.936;2022-09-17T13:26:34;99478.19;;;25.63;36.20
72707;BME280;62517;62.630;17.936;2022-09-17T13:29:04;99482.97;;;25.60;36.30
72707;BME280;62517;62.630;17.936;2022-09-17T13:31:51;99485.85;;;25.61;36.28
72707;BME280;62517;62.630;17.936;2022-09-17T13:34:29;99487.10;;;25.63;36.32
72707;BME280;62517;62.630;17.936;2022-09-17T13:36:59;99488.51;;;25.74;36.25
72707;BME280;62517;62.630;17.936;2022-09-17T13:39:39;99491.03;;;25.61;36.34
72707;BME280;62517;62.630;17.936;2022-09-17T13:42:13;99495.48;;;25.74;36.16
72707;BME280;62517;62.630;17.936;2022-09-17T13:44:49;99494.58;;;25.68;36.33
72707;BME280;62517;62.630;17.936;2022-09-17T13:47:23;99494.38;;;25.63;36.27
72707;BME280;62517;62.630;17.936;2022-09-17T13:49:58;99494.54;;;25.49;36.14
72707;BME280;62517;62.630;17.936;2022-09-17T13:52:33;99496.42;;;25.75;36.28
72707;BME280;62517;62.630;17.936;2022-09-17T13:55:05;99496.55;;;25.69;36.31
72707;BME280;62517;62.630;17.936;2022-09-17T13:57:47;99498.52;;;25.65;36.02
72707;BME280;62517;62.630;17.936;2022-09-17T14:00:51;99502.63;;;25.59;36.14
72707;BME280;62517;62.630;17.936;2022-09-17T14:03:53;99500.35;;;25.77;36.19
